Time;durP1;ratioP1;P1;durP2;ratioP2;P2;SDS_P1;SDS_P2;PMS_P1;PMS_P2;Temp;Humidity;BMP_temperature;BMP_pressure;BME280_temperature;BME280_humidity;BME280_pressure;Samples;Min_cycle;Max_cycle;Signal;HPM_P1;HPM_P2
2023/07/07 00:02:38;;;;;;;12.70;8.10;;;;;;;15.93;58.73;100887.58;110065;1269;23038;-82
2023/07/07 00:05:25;;;;;;;13.10;8.50;;;;;;;15.89;58.65;100889.56;110035;1269;21970;-83
2023/07/07 00:08:04;;;;;;;12.50;7.90;;;;;;;15.85;58.80;100890.83;109987;1269;21991;-84
2023/07/07 00:11:04;;;;;;;11.40;8.50;;;;;;;15.81;59.02;100887.32;109852;1269;23657;-84
2023/07/07 00:14:01;;;;;;;13.20;8.40;;;;;;;15.78;59.17;100885.88;110001;1269;21978;-83
2023/07/07 00:17:01;;;;;;;14.50;8.20;;;;;;;15.75;59.41;100884.61;109656;1272;23699;-84
2023/07/07 00:20:10;;;;;;;13.20;7.30;;;;;;;15.73;59.50;100880.66;109830;1271;22291;-83
2023/07/07 00:23:12;;;;;;;11.10;7.50;;;;;;;15.69;59.47;100879.13;109724;1272;21973;-83
2023/07/07 00:26:14;;;;;;;11.80;8.20;;;;;;;15.63;59.68;100886.09;109572;1272;21976;-82
2023/07/07 00:29:01;;;;;;;;;;;;;;;;;;;;;
2023/07/07 00:31:54;;;;;;;12.70;8.00;;;;;;;15.58;60.08;100887.89;109639;1272;22435;-84
2023/07/07 00:34:57;;;;;;;11.30;8.30;;;;;;;15.54;60.13;100889.52;109588;1273;22003;-84
2023/07/07 00:37:45;;;;;;;15.50;8.80;;;;;;;15.51;60.12;100887.02;109533;1273;22844;-82
2023/07/07 00:41:30;;;;;;;14.60;7.80;;;;;;;15.46;60.51;100890.27;109666;1273;23669;-85
2023/07/07 00:44:18;;;;;;;12.40;7.90;;;;;;;15.43;60.65;100893.90;109527;1273;21873;-83
2023/07/07 00:47:24;;;;;;;15.30;8.50;;;;;;;15.41;60.71;100892.61;109655;1273;21989;-84
2023/07/07 00:50:50;;;;;;;;;;;;;;;;;;;;;
2023/07/07 00:53:46;;;;;;;12.70;9.90;;;;;;;15.29;60.85;100897.41;109535;1273;22012;-85
2023/07/07 00:56:37;;;;;;;13.20;8.50;;;;;;;15.28;60.99;100902.22;109721;1272;21973;-84
2023/07/07 00:59:36;;;;;;;13.30;9.20;;;;;;;15.25;61.16;100906.53;109676;1264;24309;-83
2023/07/07 01:02:25;;;;;;;13.00;9.50;;;;;;;15.24;61.32;100912.77;109709;1272;23743;-83
2023/07/07 01:05:23;;;;;;;;;;;;;;;;;;;;;
2023/07/07 01:08:31;;;;;;;12.60;8.90;;;;;;;15.19;61.53;100912.82;109549;1275;21999;-83
2023/07/07 01:11:31;;;;;;;16.20;9.80;;;;;;;15.17;61.61;100916.39;109081;1276;23013;-83
2023/07/07 01:14:40;;;;;;;14.30;9.70;;;;;;;15.16;61.68;100914.18;109451;1275;23102;-84
2023/07/07 01:18:04;;;;;;;12.60;9.60;;;;;;;15.15;61.95;100912.84;109367;1276;21996;-84
2023/07/07 01:21:05;;;;;;;14.00;9.90;;;;;;;15.15;61.82;100913.54;109473;1273;21980;-84
2023/07/07 01:24:35;;;;;;;15.00;10.00;;;;;;;15.14;61.67;100913.39;109545;1273;21984;-82
2023/07/07 01:28:53;;;;;;;17.10;11.40;;;;;;;15.13;61.73;100913.98;109919;1270;23599;-84
2023/07/07 01:32:00;;;;;;;18.50;11.80;;;;;;;15.07;61.73;100916.55;110136;1269;21991;-84
2023/07/07 01:35:03;;;;;;;13.90;10.70;;;;;;;15.04;61.70;100917.02;109673;1273;22015;-84
2023/07/07 01:38:12;;;;;;;19.40;13.30;;;;;;;14.99;61.57;100919.00;109642;1273;22240;-84
2023/07/07 01:41:41;;;;;;;18.70;14.00;;;;;;;14.94;61.61;100920.10;109604;1273;22055;-83
2023/07/07 01:44:46;;;;;;;18.90;14.70;;;;;;;14.89;61.68;100919.45;109698;1273;21971;-83
2023/07/07 01:47:41;;;;;;;19.00;15.50;;;;;;;14.89;61.90;100918.42;109653;1273;22730;-83
2023/07/07 01:53:34;;;;;;;22.90;14.70;;;;;;;14.81;61.79;100923.70;109661;1269;22977;-83
2023/07/07 01:56:44;;;;;;;;;;;;;;;;;;;;;
2023/07/07 01:59:33;;;;;;;16.00;12.20;;;;;;;14.82;62.20;100927.52;109231;1277;24326;-82
2023/07/07 02:02:10;;;;;;;15.60;12.40;;;;;;;14.82;62.18;100927.86;109502;1261;21980;-83
2023/07/07 02:05:17;;;;;;;19.50;14.40;;;;;;;14.80;62.16;100931.45;109835;1271;23048;-83
2023/07/07 02:08:08;;;;;;;21.10;15.20;;;;;;;14.78;62.37;100928.55;110051;1270;23594;-85
2023/07/07 02:10:53;;;;;;;17.40;14.10;;;;;;;14.79;62.22;100922.55;109712;1269;21973;-84
2023/07/07 02:13:40;;;;;;;16.40;12.90;;;;;;;14.81;62.29;100929.14;109434;1272;22314;-84
2023/07/07 02:16:57;;;;;;;15.80;12.40;;;;;;;14.74;62.37;100921.75;109855;1267;23741;-83
2023/07/07 02:20:03;;;;;;;15.60;12.70;;;;;;;14.75;62.51;100924.31;110124;1266;22254;-83
2023/07/07 02:22:46;;;;;;;17.50;12.60;;;;;;;14.80;62.33;100930.23;109727;1271;22228;-82
2023/07/07 02:25:20;;;;;;;19.20;14.40;;;;;;;14.78;62.20;100933.48;109783;1271;22001;-84
2023/07/07 02:28:00;;;;;;;17.60;12.30;;;;;;;14.75;62.29;100933.77;109861;1270;22075;-86
2023/07/07 02:30:59;;;;;;;15.20;11.50;;;;;;;14.72;62.37;100933.58;110051;1263;21987;-84
2023/07/07 02:33:55;;;;;;;30.30;10.10;;;;;;;14.69;62.21;100930.41;110797;1263;22040;-83
2023/07/07 02:36:36;;;;;;;13.90;10.30;;;;;;;14.66;62.43;100933.14;110827;1254;21982;-84
2023/07/07 02:39:34;;;;;;;16.00;10.80;;;;;;;14.62;62.41;100932.63;110906;1263;22879;-84
2023/07/07 02:42:18;;;;;;;13.90;9.30;;;;;;;14.61;62.51;100938.98;111221;1257;21993;-85
2023/07/07 02:45:22;;;;;;;14.50;9.30;;;;;;;14.58;62.61;100945.75;110657;1263;22450;-84
2023/07/07 02:48:20;;;;;;;;;;;;;;;;;;;;;
2023/07/07 02:51:08;;;;;;;12.90;10.30;;;;;;;14.55;62.71;100948.48;110775;1262;22007;-85
2023/07/07 02:53:44;;;;;;;19.00;11.10;;;;;;;14.55;62.70;100953.92;110325;1267;22538;-85
2023/07/07 02:56:45;;;;;;;18.10;11.10;;;;;;;14.56;62.85;100957.91;110194;1267;21987;-83
2023/07/07 02:59:23;;;;;;;14.80;11.10;;;;;;;14.54;62.96;100965.17;109410;1274;23601;-84
2023/07/07 03:02:17;;;;;;;14.00;10.40;;;;;;;14.49;62.77;100954.92;109411;1274;21985;-83
2023/07/07 03:05:16;;;;;;;14.90;11.20;;;;;;;14.52;62.92;100965.47;109604;1273;21808;-84
2023/07/07 03:08:07;;;;;;;14.00;10.30;;;;;;;14.54;63.15;100966.26;109173;1278;23709;-84
2023/07/07 03:10:46;;;;;;;14.30;10.80;;;;;;;14.56;63.10;100964.58;109256;1278;21982;-83
2023/07/07 03:13:20;;;;;;;17.50;10.40;;;;;;;14.59;62.94;100965.17;109185;1279;22017;-83
2023/07/07 03:16:33;;;;;;;16.20;10.30;;;;;;;14.58;63.08;100964.49;109055;1278;22202;-83
2023/07/07 03:19:40;;;;;;;;;;;;;;;;;;;;;
2023/07/07 03:22:32;;;;;;;14.50;10.80;;;;;;;14.59;63.28;100972.52;109629;1274;23039;-83
2023/07/07 03:25:37;;;;;;;21.60;10.40;;;;;;;14.61;63.26;100978.73;109680;1269;21974;-84
2023/07/07 03:28:23;;;;;;;17.60;10.30;;;;;;;14.64;63.18;100982.47;109352;1264;21988;-84
2023/07/07 03:31:22;;;;;;;16.80;10.70;;;;;;;14.67;63.19;100976.21;109022;1280;21989;-83
2023/07/07 03:34:07;;;;;;;19.00;9.50;;;;;;;14.68;63.39;100979.47;108847;1285;21993;-84
2023/07/07 03:37:01;;;;;;;25.70;11.10;;;;;;;14.72;63.37;100980.52;108972;1279;22597;-84
2023/07/07 03:39:44;;;;;;;14.10;10.80;;;;;;;14.76;63.39;100979.80;108878;1282;22010;-86
2023/07/07 03:42:26;;;;;;;21.90;10.20;;;;;;;14.80;63.38;100976.98;108919;1282;22104;-83
2023/07/07 03:45:18;;;;;;;17.90;10.30;;;;;;;14.87;63.68;100980.23;109023;1282;21989;-84
2023/07/07 03:48:03;;;;;;;13.00;9.80;;;;;;;14.93;63.56;100985.55;109424;1277;21978;-85
2023/07/07 03:50:46;;;;;;;18.50;10.50;;;;;;;14.98;63.40;100983.90;109406;1275;22095;-85
2023/07/07 03:53:33;;;;;;;14.10;10.80;;;;;;;15.04;63.38;100986.61;109600;1271;21973;-85
2023/07/07 03:56:15;;;;;;;17.20;10.30;;;;;;;15.10;63.21;100990.88;109879;1269;21985;-86
2023/07/07 03:59:12;;;;;;;16.20;11.10;;;;;;;15.16;63.24;100992.55;110690;1264;21986;-87
2023/07/07 04:01:56;;;;;;;16.90;10.70;;;;;;;15.23;63.12;100991.33;110254;1268;21929;-85
2023/07/07 04:04:28;;;;;;;15.00;10.10;;;;;;;15.32;63.04;100997.20;110206;1268;22028;-86
2023/07/07 04:07:56;;;;;;;;;;;;;;;;;;;;;
2023/07/07 04:10:48;;;;;;;15.70;9.90;;;;;;;15.52;62.90;101001.51;110572;1263;21997;-84
2023/07/07 04:13:52;;;;;;;11.30;9.80;;;;;;;15.63;62.62;100996.81;110493;1263;21967;-84
2023/07/07 04:16:39;;;;;;;14.80;9.70;;;;;;;15.74;62.58;100999.41;110702;1262;21991;-87
2023/07/07 04:19:14;;;;;;;31.00;10.50;;;;;;;15.87;62.28;100997.40;110858;1259;22063;-85
2023/07/07 04:21:52;;;;;;;15.90;11.10;;;;;;;16.00;62.11;100997.83;111072;1259;22002;-85
2023/07/07 04:24:38;;;;;;;15.00;11.10;;;;;;;16.12;61.90;100995.97;111028;1257;21968;-85
2023/07/07 04:27:35;;;;;;;12.70;10.00;;;;;;;16.26;61.59;100994.20;111147;1257;22025;-87
2023/07/07 04:30:31;;;;;;;;;;;;;;;;;;;;;
2023/07/07 04:33:44;;;;;;;23.10;11.40;;;;;;;16.65;60.98;101003.10;111382;1257;21986;-86
2023/07/07 04:36:41;;;;;;;20.90;11.10;;;;;;;16.88;60.70;101009.09;111160;1257;23666;-84
2023/07/07 04:44:44;;;;;;;20.90;10.00;;;;;;;17.40;59.80;101012.23;111295;1262;22981;-85
2023/07/07 04:47:27;;;;;;;20.30;10.60;;;;;;;17.67;59.04;101008.75;110808;1260;22546;-85
2023/07/07 04:50:23;;;;;;;16.90;12.40;;;;;;;17.91;58.28;101017.11;110959;1262;23029;-86
2023/07/07 04:53:15;;;;;;;16.10;10.00;;;;;;;18.11;57.67;101018.03;110880;1262;21954;-86
2023/07/07 04:56:20;;;;;;;13.90;9.10;;;;;;;18.37;57.80;101019.37;111097;1262;23677;-86
2023/07/07 04:59:03;;;;;;;17.00;10.20;;;;;;;18.76;57.43;101024.96;111209;1257;23123;-87
2023/07/07 05:02:01;;;;;;;13.20;10.00;;;;;;;19.20;56.80;101024.70;111196;1256;21983;-82
2023/07/07 05:04:54;;;;;;;32.70;10.90;;;;;;;19.62;55.88;101023.42;110459;1264;22415;-85
2023/07/07 05:07:33;;;;;;;16.60;9.50;;;;;;;20.06;54.99;101020.34;110378;1264;23847;-84
2023/07/07 05:10:21;;;;;;;18.60;9.80;;;;;;;20.50;54.12;101019.87;110823;1264;22470;-83
2023/07/07 05:13:06;;;;;;;14.60;8.80;;;;;;;21.06;53.17;101026.44;110624;1264;21981;-86
2023/07/07 05:15:41;;;;;;;19.80;8.60;;;;;;;21.41;51.60;101027.11;110624;1262;22076;-87
2023/07/07 05:18:24;;;;;;;20.10;9.20;;;;;;;21.84;51.21;101031.80;110722;1263;22290;-86
2023/07/07 05:21:16;;;;;;;23.40;9.50;;;;;;;22.28;49.34;101033.64;110241;1268;22065;-87
2023/07/07 05:23:52;;;;;;;32.10;9.70;;;;;;;22.52;48.68;101038.55;110603;1261;22713;-86
2023/07/07 05:26:55;;;;;;;20.80;8.70;;;;;;;22.86;48.79;101037.10;111007;1260;23740;-86
2023/07/07 05:29:40;;;;;;;24.40;8.50;;;;;;;23.32;48.13;101039.89;106742;1261;5438086;-83
2023/07/07 05:32:22;;;;;;;22.70;9.20;;;;;;;23.71;47.23;101044.23;110994;1261;23772;-85
2023/07/07 05:35:00;;;;;;;17.40;9.20;;;;;;;24.03;46.75;101047.06;111013;1261;21976;-85
2023/07/07 05:37:36;;;;;;;15.80;9.50;;;;;;;24.36;45.40;101049.63;110632;1261;22959;-84
2023/07/07 05:40:13;;;;;;;14.00;10.70;;;;;;;24.50;44.97;101052.20;111308;1256;21934;-84
2023/07/07 05:42:53;;;;;;;19.20;10.70;;;;;;;24.61;44.62;101051.46;111233;1256;22093;-82
2023/07/07 05:45:34;;;;;;;33.20;10.10;;;;;;;24.80;45.20;101052.09;111326;1258;21919;-83
2023/07/07 05:48:17;;;;;;;16.90;9.80;;;;;;;25.19;45.01;101051.08;111140;1258;23179;-85
2023/07/07 05:51:03;;;;;;;28.60;8.70;;;;;;;25.56;43.88;101055.11;111088;1257;21976;-84
2023/07/07 05:53:41;;;;;;;32.00;9.90;;;;;;;25.70;42.61;101062.05;111216;1258;21976;-84
2023/07/07 05:56:23;;;;;;;20.40;9.70;;;;;;;25.82;43.16;101066.10;110956;1262;21964;-83
2023/07/07 05:59:10;;;;;;;23.70;9.20;;;;;;;26.12;42.31;101071.62;110595;1262;21963;-84
2023/07/07 06:01:54;;;;;;;17.60;7.60;;;;;;;26.39;41.94;101071.93;110070;1268;21986;-87
2023/07/07 06:04:27;;;;;;;29.90;7.00;;;;;;;26.72;41.13;101074.42;109831;1268;21995;-85
2023/07/07 06:07:03;;;;;;;7.80;4.40;;;;;;;27.00;40.42;101078.70;110394;1268;22558;-83
2023/07/07 06:09:43;;;;;;;7.50;5.30;;;;;;;27.36;38.94;101080.13;110120;1268;21989;-84
2023/07/07 06:13:13;;;;;;;11.70;5.20;;;;;;;27.68;37.37;101078.23;110053;1268;21968;-86
2023/07/07 06:16:28;;;;;;;4.00;3.10;;;;;;;27.87;36.70;101078.70;110924;1262;23609;-84
2023/07/07 06:19:09;;;;;;;7.10;3.30;;;;;;;28.14;35.68;101081.33;110241;1264;22487;-81
2023/07/07 06:21:40;;;;;;;8.70;3.50;;;;;;;28.33;34.80;101082.45;110713;1263;21962;-80
2023/07/07 06:24:13;;;;;;;6.80;3.30;;;;;;;28.49;33.93;101080.51;110833;1263;22955;-79
2023/07/07 06:26:44;;;;;;;4.60;2.50;;;;;;;28.61;33.03;101083.79;110920;1263;21973;-81
2023/07/07 06:29:43;;;;;;;6.60;2.90;;;;;;;28.73;32.59;101087.72;110793;1263;21964;-83
2023/07/07 06:32:17;;;;;;;5.50;3.20;;;;;;;28.87;32.45;101092.91;110818;1263;22202;-84
2023/07/07 06:34:48;;;;;;;6.60;2.50;;;;;;;28.98;31.97;101094.08;110855;1263;21998;-86
2023/07/07 06:37:33;;;;;;;7.60;3.20;;;;;;;29.02;31.58;101098.15;110799;1257;21963;-82
2023/07/07 06:40:04;;;;;;;;;;;;;;;28.99;31.36;101094.27;110988;1258;23805;-77
2023/07/07 06:42:34;;;;;;;3.50;2.60;;;;;;;28.89;31.84;101094.53;111105;1257;22182;-78
2023/07/07 06:45:12;;;;;;;7.10;4.10;;;;;;;28.92;31.58;101095.80;110835;1257;21958;-81
2023/07/07 06:47:45;;;;;;;6.20;3.50;;;;;;;28.97;31.48;101097.39;110957;1257;23690;-79
2023/07/07 06:50:41;;;;;;;7.20;4.90;;;;;;;29.05;31.30;101097.86;111068;1257;22438;-85
2023/07/07 06:53:19;;;;;;;7.10;3.30;;;;;;;29.11;30.94;101098.81;111052;1261;21960;-80
2023/07/07 06:55:53;;;;;;;5.00;2.90;;;;;;;29.20;30.61;101098.97;110673;1265;22362;-80
2023/07/07 06:58:30;;;;;;;5.70;3.40;;;;;;;29.29;30.35;101098.95;110595;1265;22866;-81
2023/07/07 07:01:12;;;;;;;7.70;3.60;;;;;;;29.35;30.44;101096.67;110790;1264;21960;-81
2023/07/07 07:03:51;;;;;;;4.40;2.60;;;;;;;29.43;30.50;101091.19;110878;1264;23123;-81
2023/07/07 07:06:28;;;;;;;5.30;2.40;;;;;;;29.50;29.67;101096.28;109798;1271;23703;-80
2023/07/07 07:08:59;;;;;;;4.90;2.00;;;;;;;29.48;29.53;101098.73;109830;1271;22066;-81
2023/07/07 07:11:35;;;;;;;4.80;2.00;;;;;;;29.49;29.48;101100.89;110308;1266;23618;-80
2023/07/07 07:14:12;;;;;;;3.80;2.30;;;;;;;29.51;29.23;101103.05;110529;1266;22095;-79
2023/07/07 07:16:45;;;;;;;2.70;1.80;;;;;;;29.48;28.75;101106.56;109607;1272;21956;-80
2023/07/07 07:19:19;;;;;;;4.00;1.80;;;;;;;29.46;28.50;101109.61;109654;1272;23637;-81
2023/07/07 07:21:53;;;;;;;4.80;2.10;;;;;;;29.48;28.00;101108.42;109669;1272;22407;-79
2023/07/07 07:24:31;;;;;;;7.50;1.90;;;;;;;29.52;27.79;101110.28;109875;1267;22902;-80
2023/07/07 07:27:08;;;;;;;4.00;1.90;;;;;;;29.54;27.59;101109.88;110574;1262;22035;-80
2023/07/07 07:30:12;;;;;;;7.80;2.80;;;;;;;29.62;27.55;101113.73;110782;1262;22025;-79
2023/07/07 07:33:18;;;;;;;5.30;2.00;;;;;;;29.65;27.30;101112.16;110555;1262;22392;-81
2023/07/07 07:36:13;;;;;;;6.60;2.50;;;;;;;29.65;27.01;101115.89;111186;1256;22020;-81
2023/07/07 07:38:58;;;;;;;3.80;2.20;;;;;;;29.77;27.03;101118.36;111212;1256;24396;-79
2023/07/07 07:41:50;;;;;;;3.70;1.70;;;;;;;29.89;26.71;101119.06;111198;1256;23615;-81
2023/07/07 07:44:45;;;;;;;8.90;2.10;;;;;;;29.87;26.15;101121.61;111151;1256;21950;-81
2023/07/07 07:47:43;;;;;;;3.70;2.10;;;;;;;29.87;26.32;101123.60;111372;1256;23780;-81
2023/07/07 07:50:36;;;;;;;4.40;1.50;;;;;;;29.94;26.36;101122.98;111089;1256;22322;-80
2023/07/07 07:53:36;;;;;;;3.20;1.70;;;;;;;30.01;26.18;101124.66;111052;1256;22952;-80
2023/07/07 07:56:06;;;;;;;5.00;1.50;;;;;;;30.07;25.91;101129.21;110755;1261;22028;-80
2023/07/07 07:58:37;;;;;;;3.90;1.50;;;;;;;30.07;25.47;101129.88;110776;1260;22684;-80
2023/07/07 08:01:40;;;;;;;4.40;1.50;;;;;;;30.00;25.06;101133.14;110939;1261;21956;-81
2023/07/07 08:05:15;;;;;;;8.60;2.10;;;;;;;30.01;24.96;101132.36;110726;1261;23033;-80
2023/07/07 08:08:31;;;;;;;4.80;2.20;;;;;;;30.06;24.99;101130.70;110933;1261;21998;-80
2023/07/07 08:11:15;;;;;;;2.60;1.60;;;;;;;30.16;24.87;101133.69;110959;1261;22013;-79
2023/07/07 08:14:13;;;;;;;2.40;1.40;;;;;;;30.23;24.79;101133.83;111013;1256;21926;-80
2023/07/07 08:17:17;;;;;;;4.90;2.00;;;;;;;30.09;24.63;101133.95;110751;1261;22369;-80
2023/07/07 08:19:58;;;;;;;4.30;1.50;;;;;;;30.06;24.52;101132.54;110812;1262;24418;-79
2023/07/07 08:22:42;;;;;;;4.10;1.50;;;;;;;30.04;24.65;101128.09;110463;1261;24461;-80
2023/07/07 08:25:45;;;;;;;5.60;1.40;;;;;;;30.10;24.46;101128.10;110589;1261;22108;-78
2023/07/07 08:28:52;;;;;;;3.40;1.60;;;;;;;30.05;24.63;101127.63;110816;1261;21986;-82
2023/07/07 08:32:08;;;;;;;2.60;1.70;;;;;;;30.08;24.61;101129.77;110950;1261;22449;-82
2023/07/07 08:34:52;;;;;;;;;;;;;;;30.15;24.78;101131.38;110302;1263;21950;-78
2023/07/07 08:37:27;;;;;;;6.00;1.90;;;;;;;30.16;24.82;101135.51;109853;1269;21972;-80
2023/07/07 08:39:56;;;;;;;5.30;1.90;;;;;;;30.27;24.30;101131.31;109876;1269;21987;-78
2023/07/07 08:42:36;;;;;;;11.90;1.90;;;;;;;30.33;23.72;101131.68;109864;1268;21970;-79
2023/07/07 08:45:17;;;;;;;3.20;2.00;;;;;;;30.23;23.49;101131.56;109889;1268;23918;-80
2023/07/07 08:48:27;;;;;;;6.70;1.70;;;;;;;30.05;23.79;101128.84;110045;1268;22921;-80
2023/07/07 08:51:35;;;;;;;4.80;1.50;;;;;;;29.90;23.95;101129.36;110123;1268;22155;-79
2023/07/07 08:54:56;;;;;;;6.60;3.60;;;;;;;29.86;23.74;101127.09;110536;1261;21966;-81
2023/07/07 08:57:49;;;;;;;;;;;;;;;;;;;;;
2023/07/07 09:00:54;;;;;;;4.10;1.50;;;;;;;29.56;23.67;101119.50;110602;1261;21956;-81
2023/07/07 09:04:34;;;;;;;2.80;1.30;;;;;;;29.37;24.15;101122.56;110682;1261;21963;-79
2023/07/07 09:07:28;;;;;;;2.80;1.30;;;;;;;29.42;24.44;101125.34;110912;1261;22439;-79
2023/07/07 09:10:24;;;;;;;3.20;1.70;;;;;;;29.45;23.96;101130.18;110699;1261;23618;-80
2023/07/07 09:13:37;;;;;;;3.00;1.60;;;;;;;29.42;24.25;101130.24;110772;1261;21965;-78
2023/07/07 09:16:18;;;;;;;5.90;1.60;;;;;;;29.54;24.39;101126.73;110831;1260;22351;-80
2023/07/07 09:19:17;;;;;;;;;;;;;;;;;;;;;
2023/07/07 09:22:29;;;;;;;5.60;1.20;;;;;;;29.44;23.19;101128.54;111232;1256;21995;-78
2023/07/07 09:25:27;;;;;;;4.70;1.80;;;;;;;29.23;23.31;101129.25;111412;1253;23676;-81
2023/07/07 09:28:33;;;;;;;3.30;1.50;;;;;;;29.13;23.61;101127.45;111484;1256;22359;-79
2023/07/07 09:32:02;;;;;;;3.80;2.40;;;;;;;29.14;24.00;101130.02;111073;1254;22325;-79
2023/07/07 09:34:43;;;;;;;8.50;1.90;;;;;;;29.04;23.77;101125.64;110772;1263;23026;-81
2023/07/07 09:37:36;;;;;;;2.90;1.30;;;;;;;29.02;23.97;101125.73;110750;1263;22737;-82
2023/07/07 09:41:12;;;;;;;2.20;1.60;;;;;;;28.96;23.97;101120.40;110075;1268;21983;-80
2023/07/07 09:44:41;;;;;;;4.90;1.60;;;;;;;28.96;24.24;101118.27;110363;1268;23757;-80
2023/07/07 09:47:52;;;;;;;2.80;1.10;;;;;;;28.98;24.13;101121.64;109705;1274;22756;-79
2023/07/07 09:50:43;;;;;;;3.40;1.50;;;;;;;28.98;24.15;101112.35;109766;1274;22034;-80
2023/07/07 09:53:46;;;;;;;5.50;1.40;;;;;;;29.07;24.01;101115.31;109195;1279;23705;-81
2023/07/07 09:56:34;;;;;;;6.20;1.80;;;;;;;29.08;23.65;101116.09;108697;1284;22310;-81
2023/07/07 09:59:24;;;;;;;5.10;1.60;;;;;;;29.07;23.87;101117.63;109077;1280;23714;-79
2023/07/07 10:01:59;;;;;;;2.60;1.30;;;;;;;29.10;23.89;101120.78;108806;1280;21988;-80
2023/07/07 10:04:32;;;;;;;6.80;1.90;;;;;;;29.15;23.60;101124.06;108915;1271;23699;-80
2023/07/07 10:07:17;;;;;;;1.80;1.10;;;;;;;29.18;23.17;101121.92;109415;1274;22722;-79
2023/07/07 10:10:06;;;;;;;2.10;1.10;;;;;;;29.16;23.14;101114.38;109343;1274;21989;-79
2023/07/07 10:12:47;;;;;;;3.70;1.40;;;;;;;29.09;23.18;101110.66;110623;1263;23084;-80
2023/07/07 10:16:06;;;;;;;3.40;1.30;;;;;;;29.04;23.28;101109.55;110753;1261;21963;-79
2023/07/07 10:18:51;;;;;;;2.90;1.20;;;;;;;28.91;23.12;101108.01;109897;1268;21992;-78
2023/07/07 10:21:39;;;;;;;1.50;0.90;;;;;;;28.73;23.36;101103.04;110176;1268;21977;-78
2023/07/07 10:24:18;;;;;;;5.60;1.60;;;;;;;28.69;23.29;101106.77;110072;1269;21992;-81
2023/07/07 10:27:24;;;;;;;;;;;;;;;;;;;;;
2023/07/07 10:30:32;;;;;;;2.50;1.40;;;;;;;28.57;23.01;101110.95;109938;1269;23130;-79
2023/07/07 10:33:38;;;;;;;2.70;1.30;;;;;;;28.57;23.35;101112.59;109953;1264;22091;-79
2023/07/07 10:36:23;;;;;;;2.90;1.60;;;;;;;28.59;23.23;101107.15;110112;1269;21952;-79
2023/07/07 10:39:10;;;;;;;;;;;;;;;;;;;;;
2023/07/07 10:41:56;;;;;;;2.50;1.50;;;;;;;28.52;22.96;101102.52;109767;1269;22146;-83
2023/07/07 10:45:02;;;;;;;6.60;1.30;;;;;;;28.42;23.10;101105.16;110141;1270;23739;-84
2023/07/07 10:47:52;;;;;;;2.10;1.00;;;;;;;28.29;22.66;101102.73;110175;1270;22268;-83
2023/07/07 10:50:46;;;;;;;3.60;1.70;;;;;;;28.21;23.09;101101.59;109924;1270;21995;-84
2023/07/07 10:53:51;;;;;;;;;;;;;;;;;;;;;
2023/07/07 10:57:03;;;;;;;2.10;1.30;;;;;;;28.17;22.86;101098.58;110391;1264;21990;-83
2023/07/07 11:01:10;;;;;;;1.60;1.10;;;;;;;28.13;23.00;101098.07;109877;1269;21994;-83
2023/07/07 11:04:21;;;;;;;3.90;1.20;;;;;;;28.13;23.56;101100.56;109599;1273;23595;-81
2023/07/07 11:07:40;;;;;;;4.40;2.00;;;;;;;28.08;23.59;101101.27;108915;1281;22972;-81
2023/07/07 11:11:11;;;;;;;3.60;2.00;;;;;;;27.98;23.95;101099.34;109143;1281;22007;-81
2023/07/07 11:14:15;;;;;;;2.20;1.30;;;;;;;28.09;24.22;101096.86;108757;1280;22852;-80
2023/07/07 11:17:40;;;;;;;;;;;;;;;;;;;;;
2023/07/07 11:20:54;;;;;;;2.00;1.20;;;;;;;28.22;23.17;101095.54;108795;1284;22640;-81
2023/07/07 11:24:09;;;;;;;5.40;1.50;;;;;;;28.17;22.85;101088.52;108779;1284;23071;-82
2023/07/07 11:27:28;;;;;;;3.00;1.20;;;;;;;28.23;22.93;101091.73;108830;1283;22005;-79
2023/07/07 11:30:15;;;;;;;2.80;1.30;;;;;;;28.23;22.56;101082.21;108859;1278;22138;-82
2023/07/07 11:33:07;;;;;;;10.40;1.70;;;;;;;28.36;22.49;101086.66;108862;1281;23663;-81
2023/07/07 11:36:17;;;;;;;3.60;1.40;;;;;;;28.36;22.31;101085.90;108943;1282;21811;-83
2023/07/07 11:39:36;;;;;;;6.40;1.50;;;;;;;28.40;22.57;101088.48;109249;1273;23053;-81
2023/07/07 11:42:31;;;;;;;1.60;1.10;;;;;;;28.46;22.69;101089.20;109421;1277;22120;-82
2023/07/07 11:45:25;;;;;;;3.20;1.30;;;;;;;28.48;22.64;101086.96;109810;1271;23228;-81
2023/07/07 11:48:21;;;;;;;3.80;1.70;;;;;;;28.48;22.50;101090.79;110273;1270;21962;-82
2023/07/07 11:51:45;;;;;;;2.50;1.30;;;;;;;28.46;22.79;101085.84;109910;1266;22761;-81
2023/07/07 11:54:42;;;;;;;2.20;1.30;;;;;;;28.45;22.80;101085.20;109868;1272;22238;-81
2023/07/07 11:57:39;;;;;;;2.70;1.10;;;;;;;28.39;22.69;101079.11;109411;1276;23604;-81
2023/07/07 12:00:49;;;;;;;3.20;1.10;;;;;;;28.34;22.85;101075.36;109414;1276;23715;-80
2023/07/07 12:03:45;;;;;;;3.30;1.20;;;;;;;28.33;22.89;101071.49;109500;1276;22750;-82
2023/07/07 12:06:37;;;;;;;3.90;1.40;;;;;;;28.37;22.97;101069.63;109513;1276;21992;-81
2023/07/07 12:09:30;;;;;;;5.10;1.30;;;;;;;28.39;22.87;101062.38;109770;1271;23062;-82
2023/07/07 12:12:38;;;;;;;1.80;1.40;;;;;;;28.35;22.49;101061.80;109942;1267;21972;-82
2023/07/07 12:15:31;;;;;;;5.90;3.00;;;;;;;28.36;22.74;101068.18;110749;1261;21985;-83
2023/07/07 12:18:44;;;;;;;5.30;1.80;;;;;;;28.36;23.09;101064.63;111118;1257;21958;-84
2023/07/07 12:21:36;;;;;;;2.90;1.20;;;;;;;28.43;22.94;101063.37;111245;1254;22400;-81
2023/07/07 12:24:29;;;;;;;4.60;1.40;;;;;;;28.45;22.94;101062.81;111365;1257;21991;-81
2023/07/07 12:27:18;;;;;;;;;;;;;;;28.51;23.07;101060.11;111155;1257;22143;-81
2023/07/07 12:29:53;;;;;;;2.50;1.00;;;;;;;28.48;22.81;101061.27;111125;1257;22527;-83
2023/07/07 12:32:31;;;;;;;4.30;3.90;;;;;;;28.48;22.65;101057.10;111208;1257;21966;-80
2023/07/07 12:35:36;;;;;;;2.10;1.60;;;;;;;28.39;22.41;101049.58;111302;1257;22703;-82
2023/07/07 12:38:25;;;;;;;2.50;1.40;;;;;;;28.27;22.08;101041.90;111232;1257;22276;-81
2023/07/07 12:41:10;;;;;;;2.90;1.00;;;;;;;28.13;22.06;101048.68;111301;1257;22248;-81
2023/07/07 12:43:51;;;;;;;3.60;2.10;;;;;;;27.95;22.27;101041.23;111325;1257;22257;-82
2023/07/07 12:46:38;;;;;;;1.90;1.20;;;;;;;27.85;22.62;101042.73;111059;1257;21961;-80
2023/07/07 12:49:24;;;;;;;2.50;1.30;;;;;;;27.85;22.78;101050.17;111138;1257;22005;-81
2023/07/07 12:52:00;;;;;;;4.40;1.70;;;;;;;27.87;22.53;101047.74;111391;1257;21962;-82
2023/07/07 12:54:52;;;;;;;7.90;1.40;;;;;;;27.81;22.67;101043.28;111379;1257;21964;-82
2023/07/07 12:57:25;;;;;;;2.60;1.10;;;;;;;27.88;23.01;101050.45;111245;1257;21972;-81
2023/07/07 13:00:31;;;;;;;3.60;1.40;;;;;;;27.94;22.87;101047.48;111215;1257;21973;-82
2023/07/07 13:03:11;;;;;;;1.70;1.10;;;;;;;27.95;23.00;101041.68;111145;1257;21970;-81
2023/07/07 13:05:52;;;;;;;1.90;1.10;;;;;;;28.01;22.91;101045.80;111280;1257;22421;-81
2023/07/07 13:08:44;;;;;;;14.80;13.30;;;;;;;28.02;22.90;101048.70;111168;1257;21982;-82
2023/07/07 13:11:38;;;;;;;2.60;2.00;;;;;;;27.97;22.78;101039.91;111063;1261;24335;-81
2023/07/07 13:14:40;;;;;;;1.70;1.40;;;;;;;27.96;22.82;101037.48;111105;1260;23796;-83
2023/07/07 13:17:27;;;;;;;4.80;2.00;;;;;;;27.98;22.91;101039.84;110748;1260;22364;-81
2023/07/07 13:20:14;;;;;;;1.90;1.10;;;;;;;27.95;22.72;101042.99;110551;1265;21955;-79
2023/07/07 13:23:07;;;;;;;3.10;1.60;;;;;;;27.91;22.85;101037.84;110507;1265;22296;-81
2023/07/07 13:25:48;;;;;;;1.90;1.20;;;;;;;27.90;23.02;101035.30;110708;1265;21976;-79
2023/07/07 13:28:24;;;;;;;2.70;1.40;;;;;;;27.84;23.13;101031.05;110678;1260;22055;-79
2023/07/07 13:30:59;;;;;;;2.60;1.40;;;;;;;27.77;23.16;101027.56;110607;1265;23119;-80
2023/07/07 13:33:42;;;;;;;3.00;1.60;;;;;;;27.76;23.25;101022.86;110625;1265;21994;-80
2023/07/07 13:36:12;;;;;;;3.70;1.30;;;;;;;27.78;23.23;101029.88;110846;1262;21995;-80
2023/07/07 13:38:50;;;;;;;2.40;1.30;;;;;;;27.73;23.20;101021.49;110460;1265;23613;-82
2023/07/07 13:41:22;;;;;;;2.70;1.10;;;;;;;27.78;23.21;101026.06;110125;1269;23071;-81
2023/07/07 13:43:55;;;;;;;2.00;1.10;;;;;;;27.81;23.31;101025.95;110206;1267;23712;-82